Time;durP1;ratioP1;P1;durP2;ratioP2;P2;SDS_P1;SDS_P2;PMS_P1;PMS_P2;Temp;Humidity;BMP_temperature;BMP_pressure;BME280_temperature;BME280_humidity;BME280_pressure;Samples;Min_cycle;Max_cycle;Signal;HPM_P1;HPM_P2
2022/07/09 00:00:50;;;;;;;;;;;;;;;26.49;30.92;102399.81;5047781;28;20331;-75
2022/07/09 00:03:17;;;;;;;;;;;;;;;26.47;30.96;102398.22;5046058;28;19927;-74
2022/07/09 00:05:43;;;;;;;;;;;;;;;26.44;31.14;102399.41;5046406;28;19921;-75
2022/07/09 00:08:10;;;;;;;;;;;;;;;26.42;31.31;102401.53;5054415;28;20508;-74
2022/07/09 00:10:37;;;;;;;;;;;;;;;26.40;31.54;102399.94;5049089;28;20022;-74
2022/07/09 00:13:03;;;;;;;;;;;;;;;26.38;31.24;102402.88;5046213;28;20356;-74
2022/07/09 00:15:30;;;;;;;;;;;;;;;26.35;31.72;102403.25;5048664;28;19960;-74
2022/07/09 00:17:56;;;;;;;;;;;;;;;26.33;31.22;102399.75;5047935;28;19956;-74
2022/07/09 00:20:23;;;;;;;;;;;;;;;26.31;31.54;102395.38;5053720;28;19982;-74
2022/07/09 00:22:50;;;;;;;;;;;;;;;26.27;31.37;102394.84;5048704;28;19948;-75
2022/07/09 00:25:16;;;;;;;;;;;;;;;26.23;31.66;102387.84;5047834;28;20027;-74
2022/07/09 00:27:43;;;;;;;;;;;;;;;26.20;31.42;102392.84;5042603;28;19920;-74
2022/07/09 00:30:09;;;;;;;;;;;;;;;26.15;31.50;102388.66;5050404;28;20226;-74
2022/07/09 00:32:36;;;;;;;;;;;;;;;26.12;31.63;102390.91;5046207;28;19932;-74
2022/07/09 00:35:02;;;;;;;;;;;;;;;26.07;31.91;102391.41;5047662;28;19921;-74
2022/07/09 00:37:29;;;;;;;;;;;;;;;26.04;31.96;102386.16;5046403;28;20375;-74
2022/07/09 00:39:55;;;;;;;;;;;;;;;26.00;31.74;102384.78;5069632;28;21230;-74
2022/07/09 00:42:22;;;;;;;;;;;;;;;25.95;32.13;102381.59;5044418;28;19960;-74
2022/07/09 00:44:48;;;;;;;;;;;;;;;25.91;31.81;102380.22;5045834;28;19921;-74
2022/07/09 00:47:15;;;;;;;;;;;;;;;25.90;31.67;102380.38;5045007;28;19982;-74
2022/07/09 00:49:42;;;;;;;;;;;;;;;25.86;32.16;102370.63;5046252;28;19983;-74
2022/07/09 00:52:13;;;;;;;;;;;;;;;25.83;31.78;102377.38;5048008;28;19987;-74
2022/07/09 00:54:40;;;;;;;;;;;;;;;25.81;32.30;102367.44;5044670;28;19963;-74
2022/07/09 00:57:09;;;;;;;;;;;;;;;25.77;32.58;102365.00;5050660;28;19924;-74
2022/07/09 00:59:36;;;;;;;;;;;;;;;25.75;32.25;102363.41;5047835;28;20027;-74
2022/07/09 01:02:03;;;;;;;;;;;;;;;25.71;32.67;102365.66;5057968;28;19983;-74
2022/07/09 01:04:29;;;;;;;;;;;;;;;25.68;32.42;102363.22;5048505;28;20311;-74
2022/07/09 01:06:57;;;;;;;;;;;;;;;25.66;32.40;102361.63;5044782;28;20029;-74
2022/07/09 01:09:25;;;;;;;;;;;;;;;25.64;32.59;102366.47;5043062;28;19920;-74
2022/07/09 01:11:51;;;;;;;;;;;;;;;25.61;32.74;102361.25;5051594;28;19968;-74
2022/07/09 01:14:18;;;;;;;;;;;;;;;25.58;32.51;102362.41;5065661;28;19921;-74
2022/07/09 01:16:44;;;;;;;;;;;;;;;25.55;32.54;102367.41;5042543;28;20068;-73
2022/07/09 01:19:11;;;;;;;;;;;;;;;25.53;32.41;102369.50;5045251;28;20431;-74
2022/07/09 01:21:38;;;;;;;;;;;;;;;25.49;32.86;102360.59;5049582;28;20003;-74
2022/07/09 01:24:04;;;;;;;;;;;;;;;25.48;32.58;102356.09;5045158;28;19948;-74
2022/07/09 01:26:31;;;;;;;;;;;;;;;25.45;32.88;102364.75;5043995;28;20305;-74
2022/07/09 01:28:57;;;;;;;;;;;;;;;25.43;32.63;102364.06;5049188;28;20389;-74
2022/07/09 01:31:24;;;;;;;;;;;;;;;25.42;32.81;102356.75;5063779;28;20482;-74
2022/07/09 01:33:50;;;;;;;;;;;;;;;25.39;32.92;102357.06;5064135;28;20412;-74
2022/07/09 01:36:17;;;;;;;;;;;;;;;25.37;33.31;102354.44;5051177;28;20002;-74
2022/07/09 01:38:43;;;;;;;;;;;;;;;25.33;33.16;102350.25;5057941;28;19974;-74
2022/07/09 01:41:10;;;;;;;;;;;;;;;25.33;33.29;102355.81;5051021;28;19963;-74
2022/07/09 01:43:36;;;;;;;;;;;;;;;25.29;32.93;102351.59;5045086;28;19939;-74
2022/07/09 01:46:03;;;;;;;;;;;;;;;25.28;33.24;102351.78;5043301;28;19986;-74
2022/07/09 01:48:29;;;;;;;;;;;;;;;25.26;33.16;102343.59;5043030;28;20019;-74
2022/07/09 01:50:58;;;;;;;;;;;;;;;25.25;33.30;102344.63;5048974;28;20000;-74
2022/07/09 01:53:25;;;;;;;;;;;;;;;25.24;33.43;102351.22;5051055;28;19947;-74
2022/07/09 01:55:52;;;;;;;;;;;;;;;25.23;33.51;102349.47;5054359;28;19963;-74
2022/07/09 01:58:18;;;;;;;;;;;;;;;25.22;33.39;102346.84;5049382;28;19944;-74
2022/07/09 02:00:45;;;;;;;;;;;;;;;25.20;33.52;102341.44;5044793;28;19989;-74
2022/07/09 02:03:11;;;;;;;;;;;;;;;25.18;33.87;102343.53;5048581;28;20336;-74
2022/07/09 02:05:38;;;;;;;;;;;;;;;25.16;33.82;102337.25;5048219;28;19975;-74
2022/07/09 02:08:04;;;;;;;;;;;;;;;25.15;33.51;102334.63;5041636;28;19920;-74
2022/07/09 02:10:31;;;;;;;;;;;;;;;25.14;33.53;102333.75;5060868;28;19931;-74
2022/07/09 02:12:57;;;;;;;;;;;;;;;25.13;33.42;102331.13;5048460;28;19968;-73
2022/07/09 02:15:24;;;;;;;;;;;;;;;25.12;33.51;102324.69;5050080;28;20379;-74
2022/07/09 02:17:50;;;;;;;;;;;;;;;25.11;33.89;102322.97;5044984;28;20425;-73
2022/07/09 02:20:17;;;;;;;;;;;;;;;25.11;33.94;102322.97;5054036;28;19959;-74
2022/07/09 02:22:43;;;;;;;;;;;;;;;25.11;34.11;102328.53;5045272;28;20332;-74
2022/07/09 02:25:10;;;;;;;;;;;;;;;25.09;34.37;102316.72;5049092;28;19929;-73
2022/07/09 02:27:36;;;;;;;;;;;;;;;25.10;34.37;102325.91;5052391;28;19943;-74
2022/07/09 02:30:03;;;;;;;;;;;;;;;25.08;34.12;102328.84;5047920;28;20011;-74
2022/07/09 02:32:29;;;;;;;;;;;;;;;25.06;34.45;102319.78;5047591;28;20375;-74
2022/07/09 02:34:56;;;;;;;;;;;;;;;25.06;34.37;102324.47;5047561;28;20414;-73
2022/07/09 02:37:22;;;;;;;;;;;;;;;25.05;34.16;102323.59;5047558;28;19925;-73
2022/07/09 02:39:49;;;;;;;;;;;;;;;25.02;34.50;102316.50;4998490;28;1319382;-73
2022/07/09 02:42:15;;;;;;;;;;;;;;;25.01;34.36;102316.63;5049409;28;19920;-73
2022/07/09 02:44:43;;;;;;;;;;;;;;;24.99;34.34;102316.81;5045139;28;20355;-73
2022/07/09 02:47:09;;;;;;;;;;;;;;;24.97;34.52;102318.84;5055009;28;20493;-73
2022/07/09 02:49:36;;;;;;;;;;;;;;;24.96;34.37;102319.00;5041862;28;20007;-73
2022/07/09 02:52:02;;;;;;;;;;;;;;;24.95;34.40;102320.06;5052599;28;19924;-73
2022/07/09 02:54:29;;;;;;;;;;;;;;;24.94;34.49;102312.75;5054965;28;19963;-73
2022/07/09 02:56:55;;;;;;;;;;;;;;;24.93;34.12;102316.56;5052200;28;20362;-73
2022/07/09 02:59:22;;;;;;;;;;;;;;;24.92;34.30;102312.03;5046971;28;20003;-73
2022/07/09 03:01:49;;;;;;;;;;;;;;;24.90;34.19;102311.28;5048033;28;19921;-73
2022/07/09 03:04:15;;;;;;;;;;;;;;;24.88;34.27;102311.44;5044634;28;19991;-73
2022/07/09 03:06:42;;;;;;;;;;;;;;;24.86;34.49;102305.19;5049414;28;20355;-73
2022/07/09 03:09:08;;;;;;;;;;;;;;;24.86;34.42;102312.66;5042740;28;20027;-73
2022/07/09 03:11:35;;;;;;;;;;;;;;;24.84;34.50;102312.81;5048952;28;19983;-73
2022/07/09 03:14:01;;;;;;;;;;;;;;;24.82;34.09;102309.31;5041555;28;20376;-73
2022/07/09 03:16:28;;;;;;;;;;;;;;;24.80;34.19;102307.72;5042530;28;19928;-73
2022/07/09 03:18:55;;;;;;;;;;;;;;;24.78;34.36;102309.81;5048967;28;19937;-73
2022/07/09 03:21:21;;;;;;;;;;;;;;;24.77;34.27;102314.50;5055886;28;20358;-73
2022/07/09 03:23:48;;;;;;;;;;;;;;;24.76;34.69;102322.97;5048464;28;20357;-73
2022/07/09 03:26:14;;;;;;;;;;;;;;;24.74;34.28;102317.59;5046571;28;19994;-73
2022/07/09 03:28:41;;;;;;;;;;;;;;;24.73;34.83;102309.41;5051817;28;19959;-73
2022/07/09 03:31:07;;;;;;;;;;;;;;;24.71;34.44;102314.25;5045709;28;19924;-73
2022/07/09 03:33:34;;;;;;;;;;;;;;;24.70;34.76;102320.84;5041149;28;19931;-73
2022/07/09 03:36:00;;;;;;;;;;;;;;;24.69;34.93;102313.53;5050593;28;19952;-73
2022/07/09 03:38:27;;;;;;;;;;;;;;;24.67;34.88;102296.16;5048777;28;19970;-73
2022/07/09 03:40:53;;;;;;;;;;;;;;;24.65;34.73;102310.19;5056529;28;20367;-73
2022/07/09 03:43:19;;;;;;;;;;;;;;;24.64;34.56;102312.09;5049941;28;19921;-73
2022/07/09 03:45:46;;;;;;;;;;;;;;;24.64;34.67;102301.00;5046556;28;19921;-73
2022/07/09 03:48:13;;;;;;;;;;;;;;;24.64;34.90;102308.44;5052321;28;20035;-73
2022/07/09 03:50:39;;;;;;;;;;;;;;;24.62;34.93;102308.59;5052425;28;20026;-73
2022/07/09 03:53:06;;;;;;;;;;;;;;;24.61;35.03;102306.00;5046393;28;19945;-73
2022/07/09 03:55:32;;;;;;;;;;;;;;;24.61;34.69;102306.00;5039527;28;19987;-73
2022/07/09 03:57:58;;;;;;;;;;;;;;;24.58;35.08;102311.88;5048502;28;20023;-73
2022/07/09 04:00:25;;;;;;;;;;;;;;;24.56;34.81;102309.25;5057125;28;20700;-73
2022/07/09 04:02:52;;;;;;;;;;;;;;;24.54;35.26;102305.75;5049384;28;19926;-73
2022/07/09 04:05:18;;;;;;;;;;;;;;;24.53;35.31;102308.72;5059097;28;19921;-73
2022/07/09 04:07:45;;;;;;;;;;;;;;;24.51;34.93;102300.53;5052711;28;20287;-73
2022/07/09 04:10:11;;;;;;;;;;;;;;;24.51;35.31;102307.97;5058741;28;19947;-73
2022/07/09 04:12:38;;;;;;;;;;;;;;;24.49;35.34;102305.38;5061040;28;19920;-73
2022/07/09 04:15:05;;;;;;;;;;;;;;;24.50;35.23;102306.25;5046645;28;19920;-73
2022/07/09 04:17:31;;;;;;;;;;;;;;;24.47;35.36;102312.97;5049467;28;20441;-73
2022/07/09 04:19:58;;;;;;;;;;;;;;;24.48;35.38;102302.75;5044924;28;20371;-73
2022/07/09 04:22:24;;;;;;;;;;;;;;;24.47;35.16;102301.88;5063558;28;19959;-73
2022/07/09 04:24:57;;;;;;;;;;;;;;;24.47;35.40;102312.09;5047045;28;19974;-73
2022/07/09 04:27:23;;;;;;;;;;;;;;;24.48;35.16;102319.41;5056607;28;20011;-73
2022/07/09 04:29:50;;;;;;;;;;;;;;;24.46;35.78;102322.31;5053246;28;20066;-73
2022/07/09 04:32:16;;;;;;;;;;;;;;;24.46;35.69;102311.22;5045533;28;19971;-73
2022/07/09 04:34:43;;;;;;;;;;;;;;;24.45;35.46;102309.50;5045804;28;19960;-73
2022/07/09 04:37:09;;;;;;;;;;;;;;;24.45;35.59;102311.41;5048132;28;19927;-72
2022/07/09 04:39:35;;;;;;;;;;;;;;;24.44;35.25;102306.88;5048660;28;20374;-73
2022/07/09 04:42:02;;;;;;;;;;;;;;;24.46;35.76;102313.16;5044008;28;19925;-73
2022/07/09 04:44:28;;;;;;;;;;;;;;;24.45;35.76;102315.06;5046497;28;20008;-73
2022/07/09 04:46:55;;;;;;;;;;;;;;;24.45;35.75;102314.19;5055250;28;19979;-73
2022/07/09 04:49:24;;;;;;;;;;;;;;;24.45;35.59;102315.06;5047652;28;20397;-72
2022/07/09 04:51:51;;;;;;;;;;;;;;;24.45;35.91;102308.63;5058776;28;19931;-72
2022/07/09 04:54:17;;;;;;;;;;;;;;;24.45;36.07;102319.72;5041513;28;19967;-72
2022/07/09 04:56:44;;;;;;;;;;;;;;;24.44;36.03;102317.97;5050259;28;20508;-72
2022/07/09 04:59:10;;;;;;;;;;;;;;;24.46;36.17;102313.16;5052484;28;19924;-73
2022/07/09 05:01:37;;;;;;;;;;;;;;;24.45;36.07;102315.06;5045375;28;19980;-73
2022/07/09 05:04:03;;;;;;;;;;;;;;;24.46;36.08;102314.00;5049005;28;20040;-73
2022/07/09 05:06:30;;;;;;;;;;;;;;;24.47;35.98;102304.63;5044157;28;19921;-73
2022/07/09 05:08:56;;;;;;;;;;;;;;;24.49;36.20;102310.03;5054587;28;19920;-73
2022/07/09 05:11:23;;;;;;;;;;;;;;;24.50;35.84;102312.66;5049253;28;20375;-72
2022/07/09 05:13:49;;;;;;;;;;;;;;;24.52;36.36;102307.84;5045846;28;20011;-73
2022/07/09 05:16:16;;;;;;;;;;;;;;;24.55;36.32;102314.94;5041367;28;20186;-73
2022/07/09 05:18:43;;;;;;;;;;;;;;;24.58;36.52;102314.66;5060046;28;19920;-73
2022/07/09 05:21:09;;;;;;;;;;;;;;;24.60;36.57;102319.03;5045373;28;19967;-72
2022/07/09 05:23:36;;;;;;;;;;;;;;;24.64;36.57;102314.00;5043590;28;19983;-73
2022/07/09 05:26:03;;;;;;;;;;;;;;;24.71;36.85;102319.81;5063615;28;19927;-73
2022/07/09 05:28:29;;;;;;;;;;;;;;;24.77;36.68;102317.28;5051752;28;20353;-73
2022/07/09 05:30:56;;;;;;;;;;;;;;;24.85;36.75;102325.69;5054929;28;19928;-73
2022/07/09 05:33:42;;;;;;;;;;;;;;;24.96;36.62;102319.00;5047212;28;19932;-73
2022/07/09 05:36:15;;;;;;;;;;;;;;;25.08;37.23;102333.53;5057722;28;20349;-73
2022/07/09 05:38:42;;;;;;;;;;;;;;;25.20;37.19;102321.13;5045345;28;19925;-73
2022/07/09 05:41:10;;;;;;;;;;;;;;;25.32;36.81;102331.81;5044017;28;19932;-71
2022/07/09 05:43:36;;;;;;;;;;;;;;;25.46;36.96;102321.13;5038654;28;19967;-71
2022/07/09 05:46:03;;;;;;;;;;;;;;;25.59;37.10;102327.16;5047138;28;19935;-70
2022/07/09 05:48:30;;;;;;;;;;;;;;;25.72;37.08;102322.00;5052524;28;19920;-70
2022/07/09 05:50:57;;;;;;;;;;;;;;;25.87;36.65;102325.03;5050808;28;19924;-70
2022/07/09 05:53:23;;;;;;;;;;;;;;;26.00;36.98;102329.09;5049007;28;19920;-71
2022/07/09 05:55:49;;;;;;;;;;;;;;;26.14;36.78;102327.59;5043610;28;19968;-72
2022/07/09 05:58:16;;;;;;;;;;;;;;;26.27;36.92;102327.16;5046650;28;19985;-71
2022/07/09 06:00:43;;;;;;;;;;;;;;;26.41;36.56;102323.69;5042569;28;19925;-71
2022/07/09 06:03:09;;;;;;;;;;;;;;;26.53;36.42;102320.41;5051469;28;20295;-71
2022/07/09 06:05:36;;;;;;;;;;;;;;;26.66;36.61;102331.06;5047399;28;19921;-71
2022/07/09 06:08:02;;;;;;;;;;;;;;;26.77;36.08;102327.91;5056553;28;19929;-71
2022/07/09 06:10:29;;;;;;;;;;;;;;;26.89;36.36;102329.34;5052755;28;19948;-71
2022/07/09 06:12:55;;;;;;;;;;;;;;;27.02;36.11;102319.59;5046380;28;19929;-71
2022/07/09 06:15:22;;;;;;;;;;;;;;;27.13;36.39;102320.13;5047696;28;20341;-71
2022/07/09 06:17:50;;;;;;;;;;;;;;;27.23;36.10;102317.16;5048286;28;20011;-71
2022/07/09 06:20:17;;;;;;;;;;;;;;;27.35;35.80;102320.44;5051411;28;19924;-71
2022/07/09 06:22:43;;;;;;;;;;;;;;;27.46;36.04;102314.50;5046940;28;19975;-71
2022/07/09 06:25:10;;;;;;;;;;;;;;;27.53;35.95;102305.28;5041042;28;20434;-72
2022/07/09 06:27:36;;;;;;;;;;;;;;;27.63;35.88;102313.44;5047404;28;19959;-72
2022/07/09 06:30:03;;;;;;;;;;;;;;;27.70;35.42;102310.81;5043952;28;19921;-72
2022/07/09 06:32:30;;;;;;;;;;;;;;;27.76;35.52;102307.28;5045549;28;19928;-72
2022/07/09 06:34:56;;;;;;;;;;;;;;;27.83;35.77;102314.78;5051093;28;20391;-72
2022/07/09 06:37:23;;;;;;;;;;;;;;;27.89;35.43;102311.28;5053477;28;20346;-72
2022/07/09 06:39:50;;;;;;;;;;;;;;;27.97;35.33;102310.34;5049600;28;19924;-72
2022/07/09 06:42:17;;;;;;;;;;;;;;;28.07;35.59;102308.22;5049458;28;19967;-73
2022/07/09 06:44:44;;;;;;;;;;;;;;;28.14;35.23;102306.44;5047255;28;19974;-73
2022/07/09 06:47:11;;;;;;;;;;;;;;;28.20;34.98;102311.31;5050642;28;19925;-73
2022/07/09 06:49:37;;;;;;;;;;;;;;;28.27;34.94;102312.31;5045143;28;19979;-73
2022/07/09 06:52:04;;;;;;;;;;;;;;;28.30;34.51;102306.38;5053156;28;19986;-73
2022/07/09 06:54:30;;;;;;;;;;;;;;;28.34;34.85;102312.44;5041268;28;19947;-72
2022/07/09 06:56:57;;;;;;;;;;;;;;;28.36;34.69;102314.00;5052014;28;19953;-71
2022/07/09 06:59:30;;;;;;;;;;;;;;;28.38;34.33;102314.72;5056867;28;20354;-73
2022/07/09 07:01:56;;;;;;;;;;;;;;;28.41;34.16;102310.69;5055772;28;20027;-72
2022/07/09 07:04:24;;;;;;;;;;;;;;;28.42;34.26;102311.53;5044954;28;19921;-72
2022/07/09 07:06:51;;;;;;;;;;;;;;;28.43;34.36;102316.06;5052195;28;19925;-70
2022/07/09 07:09:23;;;;;;;;;;;;;;;28.44;33.97;102313.09;5055808;28;20366;-72
2022/07/09 07:11:50;;;;;;;;;;;;;;;28.42;33.90;102309.59;5051268;28;19935;-72
2022/07/09 07:14:17;;;;;;;;;;;;;;;28.42;34.03;102306.81;5048134;28;19963;-72
2022/07/09 07:16:44;;;;;;;;;;;;;;;28.42;34.37;102311.53;5047901;28;19921;-73
2022/07/09 07:19:11;;;;;;;;;;;;;;;28.42;33.89;102312.41;5060175;28;19924;-72
2022/07/09 07:21:37;;;;;;;;;;;;;;;28.44;34.21;102315.88;5042860;28;19975;-73
2022/07/09 07:24:05;;;;;;;;;;;;;;;28.47;34.14;102309.06;5045825;28;20330;-72
2022/07/09 07:26:31;;;;;;;;;;;;;;;28.51;34.16;102318.81;5048584;28;19920;-72
2022/07/09 07:28:58;;;;;;;;;;;;;;;28.56;34.09;102310.75;5047768;28;20424;-73
2022/07/09 07:31:24;;;;;;;;;;;;;;;28.61;34.12;102311.06;5050668;28;19967;-73
2022/07/09 07:33:51;;;;;;;;;;;;;;;28.66;34.07;102317.81;5048037;28;19931;-73
2022/07/09 07:36:18;;;;;;;;;;;;;;;28.73;34.26;102317.97;5050091;28;19990;-73
2022/07/09 07:38:47;;;;;;;;;;;;;;;28.79;34.12;102314.47;5047063;28;19968;-73
2022/07/09 07:41:16;;;;;;;;;;;;;;;28.85;34.05;102313.69;5052702;28;19967;-71
2022/07/09 07:43:42;;;;;;;;;;;;;;;28.93;34.00;102310.84;5052205;28;20003;-71
2022/07/09 07:46:09;;;;;;;;;;;;;;;28.99;33.92;102312.03;5047528;28;19921;-70
2022/07/09 07:48:36;;;;;;;;;;;;;;;29.04;33.92;102316.00;5050299;28;19921;-71
2022/07/09 07:51:06;;;;;;;;;;;;;;;29.11;33.90;102319.75;5053064;28;20015;-72
2022/07/09 07:53:33;;;;;;;;;;;;;;;29.20;34.03;102311.28;5052954;28;20011;-74
2022/07/09 07:56:00;;;;;;;;;;;;;;;29.28;33.74;102323.28;5049814;28;19928;-72
2022/07/09 07:58:26;;;;;;;;;;;;;;;29.36;33.67;102322.34;5057071;28;20020;-72
2022/07/09 08:00:53;;;;;;;;;;;;;;;29.42;33.58;102321.59;5048523;28;19921;-72
2022/07/09 08:03:19;;;;;;;;;;;;;;;29.48;33.66;102315.25;5069692;28;20011;-71
2022/07/09 08:05:46;;;;;;;;;;;;;;;29.53;33.47;102318.34;5048869;28;19995;-72
2022/07/09 08:08:13;;;;;;;;;;;;;;;29.57;33.07;102314.06;5056079;28;20141;-72
2022/07/09 08:10:39;;;;;;;;;;;;;;;29.61;33.16;102300.56;5050613;28;19929;-71
2022/07/09 08:13:06;;;;;;;;;;;;;;;29.64;32.91;102301.06;5047798;28;19995;-70
2022/07/09 08:15:32;;;;;;;;;;;;;;;29.67;32.97;102305.41;5054179;28;20014;-69
2022/07/09 08:17:59;;;;;;;;;;;;;;;29.70;32.83;102297.50;5042363;28;19960;-72
2022/07/09 08:20:25;;;;;;;;;;;;;;;29.75;32.77;102302.50;5047031;28;19928;-72
2022/07/09 08:22:52;;;;;;;;;;;;;;;29.79;32.87;102304.72;5045721;28;19952;-72
2022/07/09 08:25:18;;;;;;;;;;;;;;;29.84;32.80;102307.81;5046216;28;20011;-71
2022/07/09 08:27:45;;;;;;;;;;;;;;;29.89;32.88;102296.91;5049000;28;20018;-72
2022/07/09 08:30:11;;;;;;;;;;;;;;;29.96;32.69;102298.97;5042208;28;19974;-72
2022/07/09 08:32:39;;;;;;;;;;;;;;;30.02;32.68;102299.03;5042030;28;19925;-71
2022/07/09 08:35:06;;;;;;;;;;;;;;;30.08;32.77;102294.56;5042851;28;20536;-71
2022/07/09 08:37:32;;;;;;;;;;;;;;;30.14;32.53;102303.06;5043332;28;20016;-71
2022/07/09 08:40:00;;;;;;;;;;;;;;;30.19;32.52;102294.94;5059693;28;20019;-71
2022/07/09 08:42:26;;;;;;;;;;;;;;;30.24;32.21;102303.63;5044557;28;19921;-72
2022/07/09 08:44:54;;;;;;;;;;;;;;;30.29;32.24;102293.78;5045318;28;20438;-70
2022/07/09 08:47:21;;;;;;;;;;;;;;;30.32;31.97;102291.44;5041372;28;20292;-72
2022/07/09 08:49:48;;;;;;;;;;;;;;;30.35;31.91;102292.97;5053854;28;19999;-72
2022/07/09 08:52:15;;;;;;;;;;;;;;;30.35;31.79;102277.03;5040310;28;20454;-73
2022/07/09 08:54:42;;;;;;;;;;;;;;;30.37;31.78;102279.63;5042994;28;19921;-73
2022/07/09 08:57:09;;;;;;;;;;;;;;;30.36;31.70;102275.97;5049018;28;19972;-73
2022/07/09 08:59:35;;;;;;;;;;;;;;;30.37;31.46;102265.63;5047382;28;19999;-72
2022/07/09 09:02:06;;;;;;;;;;;;;;;30.37;31.54;102260.03;5045201;28;20003;-72
2022/07/09 09:04:34;;;;;;;;;;;;;;;30.38;31.39;102265.44;5036842;28;19920;-72
2022/07/09 09:07:13;;;;;;;;;;;;;;;30.40;31.49;102263.28;5034057;28;19975;-72
2022/07/09 09:09:39;;;;;;;;;;;;;;;30.43;31.57;102256.41;5060531;28;20088;-72
2022/07/09 09:12:06;;;;;;;;;;;;;;;30.46;31.57;102248.47;5044986;28;19964;-72
2022/07/09 09:14:32;;;;;;;;;;;;;;;30.50;31.33;102246.13;5043392;28;20464;-73
2022/07/09 09:17:11;;;;;;;;;;;;;;;30.55;31.27;102244.53;5040593;28;19965;-72
2022/07/09 09:19:39;;;;;;;;;;;;;;;30.60;31.48;102230.75;5026482;28;19925;-72
2022/07/09 09:22:06;;;;;;;;;;;;;;;30.64;31.25;102236.81;5026448;28;19983;-72
2022/07/09 09:24:34;;;;;;;;;;;;;;;30.69;31.25;102239.91;5042733;28;20398;-75
2022/07/09 09:27:01;;;;;;;;;;;;;;;30.74;30.94;102233.66;5041921;28;19925;-74
2022/07/09 09:29:28;;;;;;;;;;;;;;;30.78;31.13;102226.59;5049349;28;19983;-74
2022/07/09 09:31:55;;;;;;;;;;;;;;;30.85;31.24;102228.38;5044755;28;19928;-72
2022/07/09 09:34:22;;;;;;;;;;;;;;;30.90;31.01;102228.63;5047826;28;20027;-72
2022/07/09 09:36:51;;;;;;;;;;;;;;;30.95;30.88;102228.91;5058734;28;20008;-73
2022/07/09 09:39:22;;;;;;;;;;;;;;;30.99;31.13;102224.63;5044552;28;19921;-73
2022/07/09 09:41:50;;;;;;;;;;;;;;;31.04;30.67;102229.63;5050079;28;20004;-72
2022/07/09 09:44:18;;;;;;;;;;;;;;;31.08;30.56;102235.72;5054026;28;20355;-72
2022/07/09 09:46:45;;;;;;;;;;;;;;;31.10;30.47;102228.84;5047651;28;19963;-72
2022/07/09 09:49:14;;;;;;;;;;;;;;;31.13;30.43;102234.06;5048945;28;19974;-72
2022/07/09 09:51:47;;;;;;;;;;;;;;;31.16;30.31;102229.94;5051022;28;20372;-71
2022/07/09 09:54:15;;;;;;;;;;;;;;;31.17;30.21;102217.66;5054093;28;19920;-71
2022/07/09 09:56:41;;;;;;;;;;;;;;;31.15;30.00;102217.84;5046923;28;20015;-72
2022/07/09 09:59:09;;;;;;;;;;;;;;;31.17;30.07;102214.84;5047709;28;19960;-73
2022/07/09 10:01:36;;;;;;;;;;;;;;;31.15;29.99;102212.25;5045790;28;20363;-74
2022/07/09 10:04:02;;;;;;;;;;;;;;;31.14;29.72;102221.72;5046415;28;20445;-73
2022/07/09 10:06:29;;;;;;;;;;;;;;;31.14;29.83;102212.44;5048212;28;20402;-73
2022/07/09 10:08:56;;;;;;;;;;;;;;;31.12;29.88;102221.09;5054468;28;19952;-72
2022/07/09 10:11:23;;;;;;;;;;;;;;;31.11;29.81;102221.28;5068630;28;20470;-73
2022/07/09 10:13:56;;;;;;;;;;;;;;;31.09;29.81;102206.59;5046822;28;20399;-75
2022/07/09 10:16:52;;;;;;;;;;;;;;;31.09;29.72;102203.78;5053579;28;19928;-73
2022/07/09 10:19:23;;;;;;;;;;;;;;;31.09;29.96;102204.66;5039660;28;19926;-74
2022/07/09 10:21:51;;;;;;;;;;;;;;;31.07;29.41;102201.19;5056542;28;20019;-73
2022/07/09 10:24:23;;;;;;;;;;;;;;;31.07;29.68;102201.19;5056075;28;20399;-72
2022/07/09 10:26:50;;;;;;;;;;;;;;;31.07;29.56;102200.31;5044221;28;20367;-72
2022/07/09 10:29:19;;;;;;;;;;;;;;;31.07;29.52;102201.19;5050555;28;19996;-73
2022/07/09 10:31:47;;;;;;;;;;;;;;;31.07;29.39;102197.50;5049860;28;19920;-72
2022/07/09 10:34:33;;;;;;;;;;;;;;;31.07;29.51;102191.88;5056329;28;20028;-72
2022/07/09 10:37:00;;;;;;;;;;;;;;;31.06;29.47;102185.38;5051113;28;19928;-73
2022/07/09 10:39:27;;;;;;;;;;;;;;;31.05;29.36;102186.44;5060759;28;19978;-73
2022/07/09 10:42:04;;;;;;;;;;;;;;;31.05;29.28;102183.66;5057352;28;19920;-72
2022/07/09 10:44:37;;;;;;;;;;;;;;;31.04;29.28;102189.47;5067180;28;20509;-72
2022/07/09 10:47:04;;;;;;;;;;;;;;;31.03;29.26;102183.00;5048854;28;20075;-72
2022/07/09 10:49:35;;;;;;;;;;;;;;;31.01;29.36;102180.41;5052778;28;19931;-73
2022/07/09 10:52:01;;;;;;;;;;;;;;;31.00;29.03;102175.00;5050100;28;20467;-73
2022/07/09 10:54:32;;;;;;;;;;;;;;;30.99;29.30;102173.25;5066953;28;19959;-72
2022/07/09 10:56:59;;;;;;;;;;;;;;;30.99;29.36;102167.63;5049732;28;20319;-73
2022/07/09 10:59:26;;;;;;;;;;;;;;;30.99;29.31;102176.06;5052011;28;19968;-72
2022/07/09 11:01:55;;;;;;;;;;;;;;;30.98;29.20;102175.19;5053491;28;20341;-73
2022/07/09 11:04:33;;;;;;;;;;;;;;;30.97;29.43;102172.59;5049124;28;19920;-72
2022/07/09 11:07:03;;;;;;;;;;;;;;;30.96;29.31;102166.13;5054836;28;19933;-72
2022/07/09 11:09:30;;;;;;;;;;;;;;;30.96;29.39;102159.66;5057290;28;20254;-73
2022/07/09 11:11:57;;;;;;;;;;;;;;;30.96;29.38;102160.53;5053181;28;20301;-73
2022/07/09 11:14:23;;;;;;;;;;;;;;;30.96;29.49;102157.72;5047079;28;19959;-73
2022/07/09 11:16:53;;;;;;;;;;;;;;;30.97;29.15;102150.13;5047087;28;19974;-73
2022/07/09 11:19:21;;;;;;;;;;;;;;;30.99;29.21;102159.22;5044945;28;20023;-72
2022/07/09 11:21:48;;;;;;;;;;;;;;;31.00;29.25;102159.03;5048412;28;19924;-73
2022/07/09 11:24:24;;;;;;;;;;;;;;;31.01;29.09;102155.16;5048874;28;19927;-72
2022/07/09 11:26:51;;;;;;;;;;;;;;;31.04;29.08;102153.88;5048448;28;19929;-72
2022/07/09 11:29:18;;;;;;;;;;;;;;;31.05;29.24;102154.75;5044642;28;19927;-72
2022/07/09 11:31:48;;;;;;;;;;;;;;;31.06;29.06;102153.66;5048448;28;19921;-71
2022/07/09 11:34:16;;;;;;;;;;;;;;;31.08;29.06;102140.31;5046767;28;19943;-71
2022/07/09 11:36:46;;;;;;;;;;;;;;;31.09;29.10;102136.44;5048720;28;19927;-71
2022/07/09 11:39:24;;;;;;;;;;;;;;;31.09;29.08;102130.84;5054153;28;20417;-72
2022/07/09 11:41:51;;;;;;;;;;;;;;;31.09;29.02;102131.72;5040602;28;19931;-72
2022/07/09 11:44:23;;;;;;;;;;;;;;;31.09;28.90;102134.50;5047594;28;19920;-72
2022/07/09 11:47:03;;;;;;;;;;;;;;;31.10;28.87;102124.16;5047519;28;19975;-71
2022/07/09 11:49:33;;;;;;;;;;;;;;;31.08;28.60;102126.28;5050167;28;19921;-72
2022/07/09 11:51:59;;;;;;;;;;;;;;;31.06;28.53;102126.47;5064921;28;19921;-72
2022/07/09 11:54:27;;;;;;;;;;;;;;;31.05;28.89;102119.13;5047263;28;20012;-72
2022/07/09 11:56:54;;;;;;;;;;;;;;;31.03;28.58;102121.28;5047730;28;19924;-71
2022/07/09 11:59:27;;;;;;;;;;;;;;;30.99;28.63;102118.00;5046811;28;20044;-71
2022/07/09 12:01:55;;;;;;;;;;;;;;;30.97;28.70;102108.94;5049256;28;20012;-72
2022/07/09 12:04:21;;;;;;;;;;;;;;;30.93;28.38;102109.56;5050851;28;20434;-72
2022/07/09 12:06:52;;;;;;;;;;;;;;;30.88;28.41;102103.72;5048556;28;19924;-71
2022/07/09 12:09:29;;;;;;;;;;;;;;;30.82;28.26;102113.78;5050872;28;19966;-71
2022/07/09 12:11:56;;;;;;;;;;;;;;;30.76;28.27;102110.97;5056874;28;19983;-71
2022/07/09 12:14:23;;;;;;;;;;;;;;;30.72;28.38;102109.66;5057646;28;19974;-71
2022/07/09 12:16:49;;;;;;;;;;;;;;;30.65;28.44;102106.78;5049939;28;19960;-71
2022/07/09 12:19:16;;;;;;;;;;;;;;;30.60;28.51;102101.78;5043464;28;19956;-71
2022/07/09 12:21:42;;;;;;;;;;;;;;;30.56;28.48;102094.84;5043998;28;19925;-71
2022/07/09 12:24:09;;;;;;;;;;;;;;;30.52;28.72;102089.88;5046682;28;19920;-75
2022/07/09 12:26:36;;;;;;;;;;;;;;;30.49;28.86;102079.00;5051119;28;19921;-71
2022/07/09 12:29:02;;;;;;;;;;;;;;;30.47;28.89;102070.81;5043867;28;19971;-71
2022/07/09 12:31:29;;;;;;;;;;;;;;;30.48;29.07;102052.06;5044876;28;19928;-70
2022/07/09 12:33:55;;;;;;;;;;;;;;;30.48;29.29;102052.91;5048589;28;20010;-71
2022/07/09 12:36:22;;;;;;;;;;;;;;;30.50;29.39;102059.19;5042513;28;20031;-71